sensor_id;sensor_type;location;lat;lon;timestamp;pressure;altitude;pressure_sealevel;temperature;humidity
50364;BME280;36272;59.400;17.982;2023-02-03T00:01:34;101334.31;;;-6.06;73.60
50364;BME280;36272;59.400;17.982;2023-02-03T00:06:36;101340.78;;;-6.12;73.55
50364;BME280;36272;59.400;17.982;2023-02-03T00:11:38;101326.16;;;-6.15;73.62
50364;BME280;36272;59.400;17.982;2023-02-03T00:16:39;101316.78;;;-6.17;73.71
50364;BME280;36272;59.400;17.982;2023-02-03T00:21:41;101305.72;;;-6.21;73.65
50364;BME280;36272;59.400;17.982;2023-02-03T00:26:48;101294.66;;;-6.24;73.61
50364;BME280;36272;59.400;17.982;2023-02-03T00:31:51;101287.34;;;-6.32;73.67
50364;BME280;36272;59.400;17.982;2023-02-03T00:36:53;101276.28;;;-6.36;73.72
50364;BME280;36272;59.400;17.982;2023-02-03T00:41:55;101272.09;;;-6.38;73.84
50364;BME280;36272;59.400;17.982;2023-02-03T00:46:57;101263.56;;;-6.40;73.52
50364;BME280;36272;59.400;17.982;2023-02-03T00:51:59;101253.25;;;-6.42;73.70
50364;BME280;36272;59.400;17.982;2023-02-03T00:57:01;101235.31;;;-6.47;73.64
50364;BME280;36272;59.400;17.982;2023-02-03T01:02:03;101224.34;;;-6.52;73.65
50364;BME280;36272;59.400;17.982;2023-02-03T01:07:06;101220.19;;;-6.54;73.83
50364;BME280;36272;59.400;17.982;2023-02-03T01:12:08;101215.16;;;-6.58;73.68
50364;BME280;36272;59.400;17.982;2023-02-03T01:17:10;101213.56;;;-6.60;73.83
50364;BME280;36272;59.400;17.982;2023-02-03T01:22:11;101212.94;;;-6.64;73.81
50364;BME280;36272;59.400;17.982;2023-02-03T01:27:13;101205.34;;;-6.67;73.69
50364;BME280;36272;59.400;17.982;2023-02-03T01:32:15;101214.28;;;-6.71;73.82
50364;BME280;36272;59.400;17.982;2023-02-03T01:37:16;101217.19;;;-6.76;73.66
50364;BME280;36272;59.400;17.982;2023-02-03T01:42:18;101200.81;;;-6.78;73.68
50364;BME280;36272;59.400;17.982;2023-02-03T01:52:22;101185.47;;;-6.82;73.75
50364;BME280;36272;59.400;17.982;2023-02-03T01:57:36;101172.88;;;-6.89;73.66
50364;BME280;36272;59.400;17.982;2023-02-03T02:02:41;101185.97;;;-6.90;73.71
50364;BME280;36272;59.400;17.982;2023-02-03T02:07:44;101182.75;;;-6.94;73.75
50364;BME280;36272;59.400;17.982;2023-02-03T02:12:48;101184.78;;;-6.99;73.44
50364;BME280;36272;59.400;17.982;2023-02-03T02:18:02;101183.19;;;-7.02;73.66
50364;BME280;36272;59.400;17.982;2023-02-03T02:34:00;101164.75;;;-7.11;73.71
50364;BME280;36272;59.400;17.982;2023-02-03T02:44:48;101142.56;;;-7.17;73.79
50364;BME280;36272;59.400;17.982;2023-02-03T02:49:59;101137.44;;;-7.19;73.78
50364;BME280;36272;59.400;17.982;2023-02-03T02:55:45;101129.84;;;-7.22;73.82
50364;BME280;36272;59.400;17.982;2023-02-03T03:00:39;101129.84;;;-7.22;73.71
50364;BME280;36272;59.400;17.982;2023-02-03T03:05:44;101129.28;;;-7.27;73.55
50364;BME280;36272;59.400;17.982;2023-02-03T03:10:49;101128.56;;;-7.29;73.67
50364;BME280;36272;59.400;17.982;2023-02-03T03:15:53;101122.53;;;-7.29;73.82
50364;BME280;36272;59.400;17.982;2023-02-03T03:20:58;101118.38;;;-7.32;73.68
50364;BME280;36272;59.400;17.982;2023-02-03T03:26:11;101102.22;;;-7.37;73.48
50364;BME280;36272;59.400;17.982;2023-02-03T03:31:18;101110.94;;;-7.38;73.93
50364;BME280;36272;59.400;17.982;2023-02-03T03:36:30;101080.56;;;-7.38;73.93
50364;BME280;36272;59.400;17.982;2023-02-03T03:42:09;101090.78;;;-7.35;73.90
50364;BME280;36272;59.400;17.982;2023-02-03T03:47:09;101089.84;;;-7.34;73.80
50364;BME280;36272;59.400;17.982;2023-02-03T03:52:17;101082.78;;;-7.32;73.94
50364;BME280;36272;59.400;17.982;2023-02-03T03:57:24;101090.28;;;-7.27;73.95
50364;BME280;36272;59.400;17.982;2023-02-03T04:02:28;101086.00;;;-7.28;73.83
50364;BME280;36272;59.400;17.982;2023-02-03T04:07:38;101082.78;;;-7.32;73.74
50364;BME280;36272;59.400;17.982;2023-02-03T04:12:40;101080.28;;;-7.33;73.95
50364;BME280;36272;59.400;17.982;2023-02-03T04:17:41;101081.13;;;-7.33;73.79
50364;BME280;36272;59.400;17.982;2023-02-03T04:22:43;101072.50;;;-7.33;73.98
50364;BME280;36272;59.400;17.982;2023-02-03T04:27:45;101057.91;;;-7.36;73.86
50364;BME280;36272;59.400;17.982;2023-02-03T04:32:47;101071.75;;;-7.35;73.86
50364;BME280;36272;59.400;17.982;2023-02-03T04:37:49;101069.22;;;-7.37;73.76
50364;BME280;36272;59.400;17.982;2023-02-03T04:42:51;101056.44;;;-7.40;73.87
50364;BME280;36272;59.400;17.982;2023-02-03T04:47:52;101053.75;;;-7.38;73.80
50364;BME280;36272;59.400;17.982;2023-02-03T04:52:54;101056.25;;;-7.37;73.97
50364;BME280;36272;59.400;17.982;2023-02-03T04:57:57;101045.03;;;-7.37;73.89
50364;BME280;36272;59.400;17.982;2023-02-03T05:02:59;101032.84;;;-7.37;73.85
50364;BME280;36272;59.400;17.982;2023-02-03T05:08:00;101025.88;;;-7.36;73.89
50364;BME280;36272;59.400;17.982;2023-02-03T05:13:02;101017.16;;;-7.35;73.85
50364;BME280;36272;59.400;17.982;2023-02-03T05:18:04;101006.66;;;-7.34;73.87
50364;BME280;36272;59.400;17.982;2023-02-03T05:23:06;101002.81;;;-7.28;74.00
50364;BME280;36272;59.400;17.982;2023-02-03T05:28:07;100996.69;;;-7.27;74.01
50364;BME280;36272;59.400;17.982;2023-02-03T05:33:09;100992.22;;;-7.25;73.90
50364;BME280;36272;59.400;17.982;2023-02-03T05:38:10;100984.22;;;-7.22;73.99
50364;BME280;36272;59.400;17.982;2023-02-03T05:43:12;100979.88;;;-7.21;73.75
50364;BME280;36272;59.400;17.982;2023-02-03T05:48:14;100981.41;;;-7.19;73.92
50364;BME280;36272;59.400;17.982;2023-02-03T05:53:16;100977.06;;;-7.18;74.05
50364;BME280;36272;59.400;17.982;2023-02-03T05:58:17;100971.75;;;-7.17;73.98
50364;BME280;36272;59.400;17.982;2023-02-03T06:03:19;100961.25;;;-7.15;74.03
50364;BME280;36272;59.400;17.982;2023-02-03T06:08:21;100961.16;;;-7.13;73.89
50364;BME280;36272;59.400;17.982;2023-02-03T06:13:23;100948.88;;;-7.11;74.05
50364;BME280;36272;59.400;17.982;2023-02-03T06:18:25;100943.78;;;-7.13;73.96
50364;BME280;36272;59.400;17.982;2023-02-03T06:23:26;100957.34;;;-7.08;74.04
50364;BME280;36272;59.400;17.982;2023-02-03T06:28:28;100958.16;;;-7.07;74.00
50364;BME280;36272;59.400;17.982;2023-02-03T06:33:31;100960.56;;;-7.04;74.07
50364;BME280;36272;59.400;17.982;2023-02-03T06:38:40;100969.81;;;-7.00;74.13
50364;BME280;36272;59.400;17.982;2023-02-03T06:43:41;100972.94;;;-6.95;74.03
50364;BME280;36272;59.400;17.982;2023-02-03T06:48:43;100969.41;;;-6.94;74.05
50364;BME280;36272;59.400;17.982;2023-02-03T06:53:55;100975.44;;;-6.93;74.14
50364;BME280;36272;59.400;17.982;2023-02-03T06:58:56;100973.69;;;-6.93;74.20
50364;BME280;36272;59.400;17.982;2023-02-03T07:04:20;100981.09;;;-6.87;74.32
50364;BME280;36272;59.400;17.982;2023-02-03T07:09:40;100995.44;;;-6.81;74.50
50364;BME280;36272;59.400;17.982;2023-02-03T07:14:42;100994.00;;;-6.72;74.47
50364;BME280;36272;59.400;17.982;2023-02-03T07:19:44;100990.78;;;-6.63;74.45
50364;BME280;36272;59.400;17.982;2023-02-03T07:24:45;100994.72;;;-6.57;74.42
50364;BME280;36272;59.400;17.982;2023-02-03T07:29:47;100998.59;;;-6.50;74.47
50364;BME280;36272;59.400;17.982;2023-02-03T07:34:49;100992.88;;;-6.42;74.49
50364;BME280;36272;59.400;17.982;2023-02-03T07:39:51;100992.22;;;-6.33;74.51
50364;BME280;36272;59.400;17.982;2023-02-03T07:44:52;100984.50;;;-6.21;74.69
50364;BME280;36272;59.400;17.982;2023-02-03T07:49:54;100989.09;;;-6.12;74.60
50364;BME280;36272;59.400;17.982;2023-02-03T07:54:58;100978.97;;;-6.04;74.63
50364;BME280;36272;59.400;17.982;2023-02-03T08:00:00;100986.94;;;-5.94;74.64
50364;BME280;36272;59.400;17.982;2023-02-03T08:05:02;100996.00;;;-5.87;74.61
50364;BME280;36272;59.400;17.982;2023-02-03T08:10:04;100990.97;;;-5.77;74.84
50364;BME280;36272;59.400;17.982;2023-02-03T08:15:06;100995.03;;;-5.73;74.87
50364;BME280;36272;59.400;17.982;2023-02-03T08:20:09;100993.88;;;-5.69;74.86
50364;BME280;36272;59.400;17.982;2023-02-03T08:25:12;100999.59;;;-5.63;74.95
50364;BME280;36272;59.400;17.982;2023-02-03T08:30:17;101010.53;;;-5.58;74.97
50364;BME280;36272;59.400;17.982;2023-02-03T08:35:31;100987.78;;;-5.56;75.06
50364;BME280;36272;59.400;17.982;2023-02-03T08:40:42;100999.53;;;-5.50;75.06
50364;BME280;36272;59.400;17.982;2023-02-03T08:46:02;100999.31;;;-5.47;75.23
50364;BME280;36272;59.400;17.982;2023-02-03T08:51:12;101005.63;;;-5.39;75.24
50364;BME280;36272;59.400;17.982;2023-02-03T08:56:14;101017.41;;;-5.33;75.37
50364;BME280;36272;59.400;17.982;2023-02-03T09:01:16;101002.88;;;-5.24;75.41
50364;BME280;36272;59.400;17.982;2023-02-03T09:06:24;101002.41;;;-5.18;75.42
50364;BME280;36272;59.400;17.982;2023-02-03T09:11:25;101011.22;;;-5.08;75.50
50364;BME280;36272;59.400;17.982;2023-02-03T09:16:34;101000.09;;;-4.98;75.61
50364;BME280;36272;59.400;17.982;2023-02-03T09:21:35;101002.19;;;-4.79;75.82
50364;BME280;36272;59.400;17.982;2023-02-03T09:26:37;101005.81;;;-4.57;75.84
50364;BME280;36272;59.400;17.982;2023-02-03T09:31:39;101011.78;;;-4.44;75.76
50364;BME280;36272;59.400;17.982;2023-02-03T09:36:44;101017.59;;;-4.29;75.84
50364;BME280;36272;59.400;17.982;2023-02-03T09:42:35;101034.47;;;-4.10;76.04
50364;BME280;36272;59.400;17.982;2023-02-03T09:48:12;101032.69;;;-3.98;76.02
50364;BME280;36272;59.400;17.982;2023-02-03T09:53:34;101043.25;;;-3.77;76.53
50364;BME280;36272;59.400;17.982;2023-02-03T09:58:50;101054.31;;;-3.62;76.33
50364;BME280;36272;59.400;17.982;2023-02-03T10:04:01;101055.69;;;-3.47;76.69
50364;BME280;36272;59.400;17.982;2023-02-03T10:26:24;101063.66;;;-2.72;77.51
50364;BME280;36272;59.400;17.982;2023-02-03T10:31:31;101050.00;;;-2.54;77.47
50364;BME280;36272;59.400;17.982;2023-02-03T10:36:57;101056.03;;;-2.32;77.88
50364;BME280;36272;59.400;17.982;2023-02-03T10:42:04;101064.28;;;-2.16;77.82
50364;BME280;36272;59.400;17.982;2023-02-03T10:47:52;101059.72;;;-1.92;78.17
50364;BME280;36272;59.400;17.982;2023-02-03T10:53:39;101062.88;;;-1.58;78.32
50364;BME280;36272;59.400;17.982;2023-02-03T11:04:01;101061.31;;;-0.90;78.06
50364;BME280;36272;59.400;17.982;2023-02-03T11:09:22;101061.69;;;-0.55;78.39
50364;BME280;36272;59.400;17.982;2023-02-03T11:14:25;101060.13;;;-0.28;77.95
50364;BME280;36272;59.400;17.982;2023-02-03T11:20:12;101054.22;;;-0.03;78.29
50364;BME280;36272;59.400;17.982;2023-02-03T11:25:31;101061.28;;;0.07;77.94
50364;BME280;36272;59.400;17.982;2023-02-03T11:30:33;101063.03;;;0.16;78.16
50364;BME280;36272;59.400;17.982;2023-02-03T11:35:35;101067.69;;;0.22;78.56
50364;BME280;36272;59.400;17.982;2023-02-03T11:40:38;101080.44;;;0.55;78.78
50364;BME280;36272;59.400;17.982;2023-02-03T11:45:44;101072.66;;;1.17;78.58
50364;BME280;36272;59.400;17.982;2023-02-03T12:33:48;101148.53;;;2.13;78.98
50364;BME280;36272;59.400;17.982;2023-02-03T12:51:03;101174.59;;;1.89;80.55
50364;BME280;36272;59.400;17.982;2023-02-03T12:56:17;101176.81;;;2.02;80.05
50364;BME280;36272;59.400;17.982;2023-02-03T13:01:23;101199.91;;;2.00;80.39
50364;BME280;36272;59.400;17.982;2023-02-03T13:06:37;101213.06;;;1.92;80.05
50364;BME280;36272;59.400;17.982;2023-02-03T13:22:51;101262.13;;;1.85;80.88
50364;BME280;36272;59.400;17.982;2023-02-03T13:28:22;101273.66;;;1.84;80.88
50364;BME280;36272;59.400;17.982;2023-02-03T13:40:15;101292.63;;;1.69;80.93
50364;BME280;36272;59.400;17.982;2023-02-03T13:45:27;101314.31;;;1.63;81.21
50364;BME280;36272;59.400;17.982;2023-02-03T13:50:29;101330.91;;;1.55;81.14
50364;BME280;36272;59.400;17.982;2023-02-03T13:55:39;101343.84;;;1.48;81.02
50364;BME280;36272;59.400;17.982;2023-02-03T14:05:53;101359.97;;;1.36;81.18
50364;BME280;36272;59.400;17.982;2023-02-03T14:16:47;101379.34;;;1.16;81.41
50364;BME280;36272;59.400;17.982;2023-02-03T14:22:15;101374.66;;;1.10;81.52
50364;BME280;36272;59.400;17.982;2023-02-03T14:27:21;101385.38;;;0.99;81.34
50364;BME280;36272;59.400;17.982;2023-02-03T14:32:51;101399.53;;;0.98;81.50
50364;BME280;36272;59.400;17.982;2023-02-03T14:37:57;101412.84;;;0.86;81.21
50364;BME280;36272;59.400;17.982;2023-02-03T14:43:37;101426.16;;;0.75;81.20
50364;BME280;36272;59.400;17.982;2023-02-03T14:49:09;101447.25;;;0.55;81.30
50364;BME280;36272;59.400;17.982;2023-02-03T14:59:42;101469.38;;;0.33;81.51
50364;BME280;36272;59.400;17.982;2023-02-03T15:04:46;101478.53;;;0.29;81.29
50364;BME280;36272;59.400;17.982;2023-02-03T15:15:29;101491.25;;;0.14;81.65
50364;BME280;36272;59.400;17.982;2023-02-03T15:20:47;101506.72;;;0.07;81.49
50364;BME280;36272;59.400;17.982;2023-02-03T15:31:06;101541.13;;;-0.06;81.16
50364;BME280;36272;59.400;17.982;2023-02-03T15:36:21;101548.16;;;-0.16;81.17
50364;BME280;36272;59.400;17.982;2023-02-03T15:41:25;101560.84;;;-0.21;81.18
50364;BME280;36272;59.400;17.982;2023-02-03T15:46:31;101568.44;;;-0.28;81.31
50364;BME280;36272;59.400;17.982;2023-02-03T15:52:02;101581.03;;;-0.32;81.31
50364;BME280;36272;59.400;17.982;2023-02-03T15:57:16;101598.53;;;-0.42;81.16
50364;BME280;36272;59.400;17.982;2023-02-03T16:02:45;101613.72;;;-0.46;81.17
50364;BME280;36272;59.400;17.982;2023-02-03T16:07:47;101632.88;;;-0.55;81.22
50364;BME280;36272;59.400;17.982;2023-02-03T16:12:49;101648.19;;;-0.60;80.91
50364;BME280;36272;59.400;17.982;2023-02-03T16:17:55;101646.88;;;-0.66;80.87
50364;BME280;36272;59.400;17.982;2023-02-03T16:28:30;101673.22;;;-0.77;80.75
50364;BME280;36272;59.400;17.982;2023-02-03T16:33:53;101673.97;;;-0.86;80.44
50364;BME280;36272;59.400;17.982;2023-02-03T16:39:14;101695.72;;;-0.96;80.43
50364;BME280;36272;59.400;17.982;2023-02-03T16:44:34;101704.91;;;-1.01;80.32
50364;BME280;36272;59.400;17.982;2023-02-03T16:49:54;101715.28;;;-1.00;80.01
50364;BME280;36272;59.400;17.982;2023-02-03T16:55:17;101715.53;;;-0.92;80.07
50364;BME280;36272;59.400;17.982;2023-02-03T17:00:22;101743.47;;;-0.79;79.72
50364;BME280;36272;59.400;17.982;2023-02-03T17:05:26;101759.47;;;-0.71;79.44
50364;BME280;36272;59.400;17.982;2023-02-03T17:10:28;101773.88;;;-0.65;79.13
50364;BME280;36272;59.400;17.982;2023-02-03T17:15:30;101791.91;;;-0.61;79.12
50364;BME280;36272;59.400;17.982;2023-02-03T17:20:32;101796.09;;;-0.58;78.70
50364;BME280;36272;59.400;17.982;2023-02-03T17:25:34;101805.28;;;-0.52;78.37
50364;BME280;36272;59.400;17.982;2023-02-03T17:31:03;101806.72;;;-0.48;78.19
50364;BME280;36272;59.400;17.982;2023-02-03T17:36:25;101824.63;;;-0.42;77.76
50364;BME280;36272;59.400;17.982;2023-02-03T17:41:27;101827.38;;;-0.43;77.35
50364;BME280;36272;59.400;17.982;2023-02-03T17:46:29;101849.59;;;-0.36;77.07
50364;BME280;36272;59.400;17.982;2023-02-03T17:51:30;101862.75;;;-0.36;76.57
50364;BME280;36272;59.400;17.982;2023-02-03T17:56:35;101869.09;;;-0.39;75.90
50364;BME280;36272;59.400;17.982;2023-02-03T18:01:36;101881.28;;;-0.38;75.40
50364;BME280;36272;59.400;17.982;2023-02-03T18:06:39;101884.97;;;-0.40;74.82
50364;BME280;36272;59.400;17.982;2023-02-03T18:11:41;101881.53;;;-0.41;74.96
50364;BME280;36272;59.400;17.982;2023-02-03T18:16:43;101879.22;;;-0.34;74.73
50364;BME280;36272;59.400;17.982;2023-02-03T18:21:45;101890.34;;;-0.31;74.64
50364;BME280;36272;59.400;17.982;2023-02-03T18:26:50;101907.56;;;-0.26;74.09
50364;BME280;36272;59.400;17.982;2023-02-03T18:31:52;101926.31;;;-0.20;74.21
50364;BME280;36272;59.400;17.982;2023-02-03T18:36:54;101935.41;;;-0.24;74.01
50364;BME280;36272;59.400;17.982;2023-02-03T18:41:56;101945.94;;;-0.24;73.80
50364;BME280;36272;59.400;17.982;2023-02-03T18:46:57;101950.72;;;-0.29;73.29
50364;BME280;36272;59.400;17.982;2023-02-03T18:52:06;101962.31;;;-0.32;73.51
50364;BME280;36272;59.400;17.982;2023-02-03T18:57:08;101968.41;;;-0.31;73.57
50364;BME280;36272;59.400;17.982;2023-02-03T19:02:14;101974.38;;;-0.29;73.78
50364;BME280;36272;59.400;17.982;2023-02-03T19:07:15;101985.50;;;-0.25;73.48
50364;BME280;36272;59.400;17.982;2023-02-03T19:12:17;101994.59;;;-0.29;73.76
50364;BME280;36272;59.400;17.982;2023-02-03T19:17:19;102001.88;;;-0.33;73.83
50364;BME280;36272;59.400;17.982;2023-02-03T19:22:21;102001.75;;;-0.32;74.21
50364;BME280;36272;59.400;17.982;2023-02-03T19:27:23;102010.59;;;-0.33;73.99
50364;BME280;36272;59.400;17.982;2023-02-03T19:32:25;102028.28;;;-0.35;73.94
50364;BME280;36272;59.400;17.982;2023-02-03T19:37:27;102050.16;;;-0.34;74.22
50364;BME280;36272;59.400;17.982;2023-02-03T19:42:29;102063.19;;;-0.33;74.21
50364;BME280;36272;59.400;17.982;2023-02-03T19:47:30;102065.09;;;-0.35;74.33
50364;BME280;36272;59.400;17.982;2023-02-03T19:52:32;102089.00;;;-0.38;73.96
50364;BME280;36272;59.400;17.982;2023-02-03T19:57:37;102091.59;;;-0.49;73.95
50364;BME280;36272;59.400;17.982;2023-02-03T20:02:43;102102.69;;;-0.57;73.93
50364;BME280;36272;59.400;17.982;2023-02-03T20:07:47;102114.97;;;-0.69;73.62
50364;BME280;36272;59.400;17.982;2023-02-03T20:12:49;102125.50;;;-0.69;73.68
50364;BME280;36272;59.400;17.982;2023-02-03T20:17:51;102133.69;;;-0.73;73.25
50364;BME280;36272;59.400;17.982;2023-02-03T20:22:58;102133.09;;;-0.77;73.05
50364;BME280;36272;59.400;17.982;2023-02-03T20:28:00;102145.72;;;-0.82;72.82
50364;BME280;36272;59.400;17.982;2023-02-03T20:33:02;102150.59;;;-0.89;72.65
50364;BME280;36272;59.400;17.982;2023-02-03T20:38:05;102161.41;;;-0.94;72.56
50364;BME280;36272;59.400;17.982;2023-02-03T20:43:14;102172.38;;;-1.00;72.46
50364;BME280;36272;59.400;17.982;2023-02-03T20:48:18;102194.97;;;-1.10;71.89
50364;BME280;36272;59.400;17.982;2023-02-03T20:53:22;102191.34;;;-1.21;72.09
50364;BME280;36272;59.400;17.982;2023-02-03T20:58:25;102216.44;;;-1.29;71.89
50364;BME280;36272;59.400;17.982;2023-02-03T21:03:28;102214.28;;;-1.36;72.12
50364;BME280;36272;59.400;17.982;2023-02-03T21:08:48;102234.09;;;-1.44;71.79
50364;BME280;36272;59.400;17.982;2023-02-03T21:13:50;102242.53;;;-1.52;71.84
50364;BME280;36272;59.400;17.982;2023-02-03T21:18:56;102243.59;;;-1.55;71.87
50364;BME280;36272;59.400;17.982;2023-02-03T21:24:22;102254.28;;;-1.58;71.61
50364;BME280;36272;59.400;17.982;2023-02-03T21:29:30;102264.34;;;-1.65;71.59
50364;BME280;36272;59.400;17.982;2023-02-03T21:34:34;102287.13;;;-1.65;71.44
50364;BME280;36272;59.400;17.982;2023-02-03T21:39:39;102275.03;;;-1.68;71.27
50364;BME280;36272;59.400;17.982;2023-02-03T21:44:44;102310.03;;;-1.67;71.14
50364;BME280;36272;59.400;17.982;2023-02-03T21:49:46;102322.75;;;-1.61;71.08
50364;BME280;36272;59.400;17.982;2023-02-03T21:54:48;102317.50;;;-1.61;71.09
50364;BME280;36272;59.400;17.982;2023-02-03T21:59:50;102319.38;;;-1.63;71.07
50364;BME280;36272;59.400;17.982;2023-02-03T22:04:51;102330.59;;;-1.61;71.17
50364;BME280;36272;59.400;17.982;2023-02-03T22:09:53;102336.06;;;-1.64;71.17
50364;BME280;36272;59.400;17.982;2023-02-03T22:14:57;102339.50;;;-1.63;71.40
50364;BME280;36272;59.400;17.982;2023-02-03T22:20:02;102349.94;;;-1.62;71.53
50364;BME280;36272;59.400;17.982;2023-02-03T22:25:07;102367.25;;;-1.59;71.68
50364;BME280;36272;59.400;17.982;2023-02-03T22:30:12;102379.97;;;-1.53;71.78
50364;BME280;36272;59.400;17.982;2023-02-03T22:35:14;102393.63;;;-1.48;71.95
50364;BME280;36272;59.400;17.982;2023-02-03T22:40:16;102403.06;;;-1.45;71.81
50364;BME280;36272;59.400;17.982;2023-02-03T22:45:19;102419.88;;;-1.48;71.91
50364;BME280;36272;59.400;17.982;2023-02-03T22:50:21;102443.59;;;-1.50;72.04
50364;BME280;36272;59.400;17.982;2023-02-03T22:55:24;102436.22;;;-1.57;72.21
50364;BME280;36272;59.400;17.982;2023-02-03T23:00:25;102447.22;;;-1.65;72.06
50364;BME280;36272;59.400;17.982;2023-02-03T23:05:27;102440.69;;;-1.72;72.17
50364;BME280;36272;59.400;17.982;2023-02-03T23:10:34;102470.88;;;-1.80;72.19
50364;BME280;36272;59.400;17.982;2023-02-03T23:15:36;102465.00;;;-1.83;72.27
50364;BME280;36272;59.400;17.982;2023-02-03T23:20:38;102473.81;;;-1.84;72.50
50364;BME280;36272;59.400;17.982;2023-02-03T23:25:39;102495.06;;;-1.74;72.53
50364;BME280;36272;59.400;17.982;2023-02-03T23:30:41;102486.03;;;-1.70;72.27
50364;BME280;36272;59.400;17.982;2023-02-03T23:35:43;102506.09;;;-1.69;72.15
50364;BME280;36272;59.400;17.982;2023-02-03T23:40:48;102512.09;;;-1.67;72.18
50364;BME280;36272;59.400;17.982;2023-02-03T23:45:49;102507.78;;;-1.68;72.05
50364;BME280;36272;59.400;17.982;2023-02-03T23:50:54;102515.09;;;-1.73;71.97
50364;BME280;36272;59.400;17.982;2023-02-03T23:55:56;102535.16;;;-1.72;72.04
